Time;durP1;ratioP1;P1;durP2;ratioP2;P2;SDS_P1;SDS_P2;PMS_P1;PMS_P2;Temp;Humidity;BMP_temperature;BMP_pressure;BME280_temperature;BME280_humidity;BME280_pressure;Samples;Min_cycle;Max_cycle;Signal;HPM_P1;HPM_P2
2023/05/08 00:00:21;;;;;;;23.13;20.98;;;15.00;99.90;;;;;;5068038;28;20039;-64
2023/05/08 00:02:46;;;;;;;23.85;21.58;;;15.10;99.90;;;;;;5068787;28;20072;-64
2023/05/08 00:05:12;;;;;;;24.05;21.80;;;14.90;99.90;;;;;;5067827;28;20064;-64
2023/05/08 00:07:38;;;;;;;23.63;21.50;;;14.90;99.90;;;;;;5069935;28;20044;-64
2023/05/08 00:10:05;;;;;;;24.35;22.05;;;14.90;99.90;;;;;;5070085;28;20391;-64
2023/05/08 00:12:31;;;;;;;23.45;21.35;;;14.80;99.90;;;;;;5067456;28;20522;-64
2023/05/08 00:14:57;;;;;;;25.85;23.45;;;14.70;99.90;;;;;;5084654;28;20071;-64
2023/05/08 00:17:23;;;;;;;25.00;22.70;;;14.70;99.90;;;;;;5068637;28;20060;-64
2023/05/08 00:19:48;;;;;;;25.10;22.77;;;14.80;99.90;;;;;;5069692;28;20049;-64
2023/05/08 00:22:14;;;;;;;26.40;23.90;;;14.70;99.90;;;;;;5068691;28;20036;-64
2023/05/08 00:24:39;;;;;;;25.08;22.45;;;14.60;99.90;;;;;;5068785;28;20052;-64
2023/05/08 00:27:06;;;;;;;23.75;21.58;;;14.70;99.90;;;;;;5064412;28;20041;-64
2023/05/08 00:29:33;;;;;;;25.02;22.63;;;14.50;99.90;;;;;;5069761;28;20059;-64
2023/05/08 00:31:58;;;;;;;24.65;21.98;;;14.50;99.90;;;;;;5065290;28;20101;-64
2023/05/08 00:34:24;;;;;;;25.40;23.10;;;14.60;99.90;;;;;;5068859;28;20037;-64
2023/05/08 00:36:49;;;;;;;24.75;22.45;;;14.60;99.90;;;;;;5069860;28;20088;-64
2023/05/08 00:39:15;;;;;;;25.02;22.63;;;14.50;99.90;;;;;;5069184;28;20106;-64
2023/05/08 00:41:41;;;;;;;25.38;23.05;;;14.40;99.90;;;;;;5069725;28;20095;-64
2023/05/08 00:44:07;;;;;;;25.30;22.80;;;14.50;99.90;;;;;;5068450;28;20174;-64
2023/05/08 00:46:32;;;;;;;25.13;22.73;;;14.40;99.90;;;;;;5067378;28;20115;-64
2023/05/08 00:48:58;;;;;;;25.05;22.70;;;14.40;99.90;;;;;;5069099;28;20111;-64
2023/05/08 00:51:25;;;;;;;25.20;21.95;;;14.30;99.90;;;;;;5069559;28;20036;-64
2023/05/08 00:53:51;;;;;;;26.17;23.67;;;14.30;99.90;;;;;;5069118;28;20044;-64
2023/05/08 00:56:19;;;;;;;277.92;66.82;;;14.30;99.90;;;;;;5063858;28;20048;-64
2023/05/08 00:58:46;;;;;;;25.92;23.42;;;14.30;99.90;;;;;;5057221;28;20533;-64
2023/05/08 01:01:13;;;;;;;25.02;22.73;;;14.30;99.90;;;;;;5063708;28;20044;-64
2023/05/08 01:03:39;;;;;;;26.05;23.55;;;14.30;99.90;;;;;;5063941;28;20048;-64
2023/05/08 01:06:05;;;;;;;25.48;23.13;;;14.30;99.90;;;;;;5064182;28;20036;-64
2023/05/08 01:08:31;;;;;;;26.60;23.90;;;14.30;99.90;;;;;;5069017;28;20037;-64
2023/05/08 01:11:26;;;;;;;27.00;24.33;;;14.30;99.90;;;;;;5067322;28;20564;-64
2023/05/08 01:14:01;;;;;;;26.73;24.20;;;14.20;99.90;;;;;;5053009;28;20060;-64
2023/05/08 01:16:42;;;;;;;27.45;24.88;;;14.00;99.90;;;;;;5067158;28;20040;-64
2023/05/08 01:19:46;;;;;;;25.52;23.13;;;14.20;99.90;;;;;;5067884;28;20080;-64
2023/05/08 01:22:30;;;;;;;25.83;23.38;;;14.10;99.90;;;;;;5055935;28;20048;-64
2023/05/08 01:25:30;;;;;;;26.20;23.60;;;14.00;99.90;;;;;;5047900;28;20041;-64
2023/05/08 01:28:28;;;;;;;26.60;24.27;;;14.00;99.90;;;;;;5065506;28;20513;-64
2023/05/08 01:31:35;;;;;;;26.85;24.35;;;14.00;99.90;;;;;;5067394;28;20063;-64
2023/05/08 01:34:24;;;;;;;27.55;25.00;;;13.90;99.90;;;;;;5049595;28;20048;-64
2023/05/08 01:36:58;;;;;;;25.90;23.52;;;13.80;99.90;;;;;;5065877;28;20107;-64
2023/05/08 01:39:33;;;;;;;195.05;40.17;;;13.60;99.90;;;;;;5067406;28;20061;-64
2023/05/08 01:42:08;;;;;;;25.50;23.08;;;13.60;99.90;;;;;;5067874;28;20045;-64
2023/05/08 01:44:42;;;;;;;26.17;23.67;;;13.70;99.90;;;;;;5067452;28;20143;-64
2023/05/08 01:47:10;;;;;;;25.88;23.42;;;13.50;99.90;;;;;;5062172;28;20032;-64
2023/05/08 01:49:46;;;;;;;26.35;23.65;;;13.60;99.90;;;;;;5067310;28;20203;-64
2023/05/08 01:52:13;;;;;;;26.67;24.08;;;13.50;99.90;;;;;;5057150;28;20048;-64
2023/05/08 01:54:45;;;;;;;27.50;24.88;;;13.50;99.90;;;;;;5051469;28;20049;-64
2023/05/08 01:57:13;;;;;;;26.50;23.90;;;13.50;99.90;;;;;;5064161;28;20089;-64
2023/05/08 01:59:40;;;;;;;25.92;23.52;;;13.50;99.90;;;;;;5071734;28;20445;-64
2023/05/08 02:02:07;;;;;;;26.60;24.20;;;13.40;99.90;;;;;;5062825;28;20036;-63
2023/05/08 02:04:34;;;;;;;27.08;24.38;;;13.40;99.90;;;;;;5071261;28;20425;-63
2023/05/08 02:07:00;;;;;;;26.95;24.45;;;13.40;99.90;;;;;;5062012;28;20041;-64
2023/05/08 02:09:28;;;;;;;28.55;25.85;;;13.50;99.90;;;;;;5053124;28;20548;-64
2023/05/08 02:11:55;;;;;;;27.95;25.35;;;13.30;99.90;;;;;;5070833;28;20492;-63
2023/05/08 02:14:21;;;;;;;29.95;27.13;;;13.30;99.90;;;;;;5070745;28;20045;-63
2023/05/08 02:16:51;;;;;;;27.52;24.92;;;13.60;99.90;;;;;;5071594;28;20109;-64
2023/05/08 02:19:18;;;;;;;27.88;25.05;;;13.30;99.90;;;;;;5070487;28;20423;-64
2023/05/08 02:21:45;;;;;;;27.92;25.33;;;13.40;99.90;;;;;;5063417;28;20041;-64
2023/05/08 02:24:13;;;;;;;30.02;27.13;;;13.30;99.90;;;;;;5050639;28;20102;-64
2023/05/08 02:26:41;;;;;;;27.70;24.77;;;13.20;99.90;;;;;;5054598;28;20051;-64
2023/05/08 02:29:07;;;;;;;27.48;24.85;;;13.20;99.90;;;;;;5065923;28;20074;-64
2023/05/08 02:31:34;;;;;;;29.05;25.85;;;13.30;99.90;;;;;;5071048;28;20116;-64
2023/05/08 02:34:01;;;;;;;29.35;26.65;;;13.40;99.90;;;;;;5070515;28;20110;-63
2023/05/08 02:36:28;;;;;;;30.63;27.42;;;13.20;99.90;;;;;;5071566;28;20079;-64
2023/05/08 02:38:57;;;;;;;29.65;26.65;;;13.30;99.90;;;;;;5071452;28;20406;-63
2023/05/08 02:41:26;;;;;;;29.75;26.73;;;13.30;99.90;;;;;;5067286;28;20051;-63
2023/05/08 02:43:53;;;;;;;29.05;26.13;;;13.50;99.90;;;;;;5051651;28;20144;-63
2023/05/08 02:46:28;;;;;;;29.85;26.85;;;13.60;99.90;;;;;;5068464;28;20149;-64
2023/05/08 02:49:00;;;;;;;28.60;25.83;;;13.70;99.90;;;;;;5069955;28;20109;-63
2023/05/08 02:51:45;;;;;;;30.08;26.90;;;13.50;99.90;;;;;;5068110;28;20083;-64
2023/05/08 02:54:20;;;;;;;29.10;26.20;;;13.70;99.90;;;;;;5034055;28;20459;-63
2023/05/08 02:56:54;;;;;;;29.02;26.23;;;13.50;99.90;;;;;;5068996;28;20044;-64
2023/05/08 02:59:27;;;;;;;28.52;25.73;;;13.50;99.90;;;;;;5070935;28;20440;-63
2023/05/08 03:01:58;;;;;;;29.05;26.23;;;13.50;99.90;;;;;;5068686;28;20040;-64
2023/05/08 03:15:33;;;;;;;30.38;27.38;;;13.10;99.90;;;;;;5059413;28;20048;-64
2023/05/08 03:18:18;;;;;;;29.20;26.40;;;12.90;99.90;;;;;;5075023;28;20043;-63
2023/05/08 03:21:04;;;;;;;29.35;26.45;;;13.10;99.90;;;;;;5050403;28;20086;-63
2023/05/08 03:23:34;;;;;;;32.38;29.15;;;12.80;99.90;;;;;;5050618;28;20499;-64
2023/05/08 03:26:00;;;;;;;31.05;28.13;;;13.00;99.90;;;;;;5061520;28;20517;-63
2023/05/08 03:28:27;;;;;;;31.15;28.20;;;13.00;99.90;;;;;;5069136;28;20856;-63
2023/05/08 03:30:54;;;;;;;31.17;28.02;;;13.00;99.90;;;;;;5052683;28;20052;-63
2023/05/08 03:33:22;;;;;;;29.88;27.05;;;13.00;99.90;;;;;;5062465;28;20744;-63
2023/05/08 03:35:48;;;;;;;30.92;27.67;;;13.00;99.90;;;;;;5069695;28;20071;-63
2023/05/08 03:38:15;;;;;;;30.88;27.75;;;13.00;99.90;;;;;;5070193;28;20056;-64
2023/05/08 03:40:41;;;;;;;31.63;28.52;;;13.10;99.90;;;;;;5070569;28;20089;-64
2023/05/08 03:43:08;;;;;;;32.05;28.85;;;12.90;99.90;;;;;;5068855;28;20418;-63
2023/05/08 03:45:38;;;;;;;31.73;28.50;;;12.90;99.90;;;;;;5067960;28;20036;-63
2023/05/08 03:48:05;;;;;;;31.25;28.25;;;12.90;99.90;;;;;;5055932;28;20087;-63
2023/05/08 03:50:33;;;;;;;31.15;27.88;;;13.10;99.90;;;;;;5049338;28;20052;-63
2023/05/08 03:52:58;;;;;;;30.35;27.38;;;13.00;99.90;;;;;;5050336;28;20071;-63
2023/05/08 03:55:25;;;;;;;30.42;27.33;;;12.90;99.90;;;;;;5065542;28;20619;-63
2023/05/08 03:57:59;;;;;;;30.50;27.60;;;12.90;99.90;;;;;;5070151;28;20044;-63
2023/05/08 04:00:47;;;;;;;32.38;29.08;;;12.90;99.90;;;;;;5057745;28;20076;-63
2023/05/08 04:03:32;;;;;;;31.52;28.33;;;12.80;99.90;;;;;;5066242;28;20051;-64
2023/05/08 04:06:09;;;;;;;31.35;28.25;;;13.00;99.90;;;;;;5068165;28;20102;-63
2023/05/08 04:08:51;;;;;;;31.88;28.58;;;12.80;99.90;;;;;;5068258;28;20044;-63
2023/05/08 04:11:29;;;;;;;32.38;29.17;;;13.00;99.90;;;;;;5052424;28;20091;-63
2023/05/08 04:14:00;;;;;;;33.15;29.77;;;13.00;99.90;;;;;;5048693;28;20545;-63
2023/05/08 04:16:28;;;;;;;33.00;29.60;;;12.80;99.90;;;;;;5064413;28;20441;-63
2023/05/08 04:18:59;;;;;;;34.33;30.95;;;13.10;99.90;;;;;;5068116;28;20040;-63
2023/05/08 04:21:27;;;;;;;33.15;29.55;;;13.10;99.90;;;;;;5067664;28;20049;-64
2023/05/08 04:23:55;;;;;;;33.97;30.67;;;12.90;99.90;;;;;;5067282;28;20186;-64
2023/05/08 04:26:21;;;;;;;34.38;30.77;;;13.20;99.90;;;;;;5065814;28;20494;-63
2023/05/08 04:28:47;;;;;;;31.33;28.15;;;13.10;99.90;;;;;;5063102;28;20085;-63
2023/05/08 04:31:15;;;;;;;35.08;31.67;;;13.00;99.90;;;;;;5067591;28;20036;-63
2023/05/08 04:33:42;;;;;;;35.17;31.73;;;13.00;99.90;;;;;;5083171;28;20102;-64
2023/05/08 04:36:13;;;;;;;31.45;28.27;;;13.00;99.90;;;;;;5064809;28;20049;-63
2023/05/08 04:38:39;;;;;;;31.70;28.65;;;13.20;99.90;;;;;;5065914;28;20105;-63
2023/05/08 04:41:06;;;;;;;31.25;28.27;;;13.20;99.90;;;;;;5062521;28;20052;-64
2023/05/08 04:43:33;;;;;;;30.70;27.70;;;13.10;99.90;;;;;;5063518;28;20033;-63
2023/05/08 04:45:58;;;;;;;32.15;28.85;;;13.10;99.90;;;;;;5063228;28;20036;-64
2023/05/08 04:48:24;;;;;;;31.77;28.67;;;12.90;99.90;;;;;;5062772;28;20040;-63
2023/05/08 04:50:50;;;;;;;31.95;28.55;;;13.20;99.90;;;;;;5066950;28;20071;-63
2023/05/08 04:53:15;;;;;;;32.63;29.42;;;13.20;99.90;;;;;;5060629;28;20040;-64
2023/05/08 04:55:41;;;;;;;32.47;29.33;;;13.20;99.90;;;;;;5064628;28;20044;-64
2023/05/08 04:58:07;;;;;;;34.35;31.08;;;13.30;99.90;;;;;;5061473;28;20082;-64
2023/05/08 05:00:33;;;;;;;33.85;30.52;;;13.00;99.90;;;;;;5066890;28;20040;-64
2023/05/08 05:02:59;;;;;;;33.50;30.15;;;13.30;99.90;;;;;;5065998;28;20734;-64
2023/05/08 05:05:24;;;;;;;33.45;30.10;;;13.30;99.90;;;;;;5060950;28;20112;-64
2023/05/08 05:07:50;;;;;;;34.55;31.05;;;13.10;99.90;;;;;;5061835;28;20044;-63
2023/05/08 05:10:15;;;;;;;33.58;30.20;;;13.20;99.90;;;;;;5066482;28;20040;-64
2023/05/08 05:12:41;;;;;;;33.83;30.60;;;13.20;99.90;;;;;;5067070;28;20048;-64
2023/05/08 05:15:07;;;;;;;34.97;31.50;;;13.60;99.90;;;;;;5060871;28;20413;-64
2023/05/08 05:17:33;;;;;;;34.40;31.08;;;13.50;99.90;;;;;;5061177;28;20387;-64
2023/05/08 05:19:59;;;;;;;34.97;31.52;;;13.40;99.90;;;;;;5065226;28;20564;-64
2023/05/08 05:22:24;;;;;;;32.95;29.75;;;13.70;99.90;;;;;;5068090;28;20124;-62
2023/05/08 05:24:50;;;;;;;33.45;30.13;;;13.70;99.90;;;;;;5064448;28;20040;-62
2023/05/08 05:27:16;;;;;;;33.38;29.23;;;13.60;99.90;;;;;;5067621;28;20037;-62
2023/05/08 05:29:42;;;;;;;32.95;29.75;;;13.50;99.90;;;;;;5068748;28;20047;-65
2023/05/08 05:32:09;;;;;;;34.50;31.00;;;13.90;99.90;;;;;;5072037;28;20047;-64
2023/05/08 05:34:35;;;;;;;33.15;29.85;;;13.60;99.90;;;;;;5067668;28;20044;-64
2023/05/08 05:37:00;;;;;;;34.92;31.48;;;13.90;99.90;;;;;;5069659;28;20048;-65
2023/05/08 05:39:26;;;;;;;35.40;31.60;;;13.80;99.90;;;;;;5069272;28;20411;-65
2023/05/08 05:41:51;;;;;;;34.13;30.73;;;14.10;99.90;;;;;;5071117;28;20406;-65
2023/05/08 05:44:17;;;;;;;32.78;29.48;;;14.10;99.90;;;;;;5067068;28;20045;-65
2023/05/08 05:46:43;;;;;;;33.65;30.10;;;14.00;99.90;;;;;;5061445;28;20128;-65
2023/05/08 05:49:08;;;;;;;32.53;29.30;;;14.30;99.90;;;;;;5064525;28;20037;-65
2023/05/08 05:51:34;;;;;;;33.45;30.05;;;14.80;99.90;;;;;;5065806;28;20880;-65
2023/05/08 05:53:59;;;;;;;33.90;30.60;;;14.40;99.90;;;;;;5068473;28;20047;-65
2023/05/08 05:56:25;;;;;;;33.70;30.40;;;14.20;99.90;;;;;;5066111;28;20048;-65
2023/05/08 05:58:50;;;;;;;34.58;30.88;;;14.50;99.90;;;;;;5065990;28;20041;-65
2023/05/08 06:01:16;;;;;;;30.33;27.25;;;14.60;99.90;;;;;;5068230;28;20301;-65
2023/05/08 06:03:42;;;;;;;32.17;27.35;;;14.50;99.90;;;;;;5065706;28;20047;-65
2023/05/08 06:06:07;;;;;;;31.73;28.52;;;14.60;99.90;;;;;;5054688;28;20445;-62
2023/05/08 06:08:33;;;;;;;32.58;29.17;;;14.80;99.90;;;;;;5054916;28;20040;-64
2023/05/08 06:10:58;;;;;;;34.10;30.70;;;14.90;99.90;;;;;;5054288;28;20033;-63
2023/05/08 06:13:24;;;;;;;30.75;27.75;;;14.70;99.90;;;;;;5055695;28;20139;-64
2023/05/08 06:15:50;;;;;;;31.33;28.20;;;14.80;99.90;;;;;;5055885;28;20045;-64
2023/05/08 06:18:15;;;;;;;32.15;28.95;;;15.10;99.90;;;;;;5052788;28;20037;-64
2023/05/08 06:20:41;;;;;;;30.63;27.35;;;14.90;99.90;;;;;;5053644;28;20041;-65
2023/05/08 06:23:07;;;;;;;32.08;28.88;;;15.00;99.90;;;;;;5057487;28;20042;-65
2023/05/08 06:25:32;;;;;;;32.92;29.42;;;15.10;99.90;;;;;;5056977;28;20037;-64
2023/05/08 06:27:58;;;;;;;32.67;29.15;;;15.20;99.90;;;;;;5066405;28;20367;-64
2023/05/08 06:30:23;;;;;;;31.25;28.17;;;15.40;99.90;;;;;;5057268;28;20040;-65
2023/05/08 06:32:49;;;;;;;31.58;28.38;;;15.50;99.90;;;;;;5056147;28;20028;-65
2023/05/08 06:35:18;;;;;;;30.90;27.80;;;16.20;99.90;;;;;;5056480;28;20048;-64
2023/05/08 06:37:47;;;;;;;31.40;28.33;;;15.60;99.90;;;;;;5053965;28;20563;-64
2023/05/08 06:40:13;;;;;;;32.13;28.70;;;15.60;99.90;;;;;;5048066;28;20044;-65
2023/05/08 06:42:38;;;;;;;32.30;29.20;;;15.80;99.90;;;;;;5044695;28;20486;-65
2023/05/08 06:45:05;;;;;;;29.73;26.70;;;15.80;99.90;;;;;;5054505;28;20043;-65
2023/05/08 06:47:30;;;;;;;31.88;28.50;;;16.00;99.90;;;;;;5051209;28;20037;-65
2023/05/08 06:49:56;;;;;;;31.10;28.15;;;16.10;99.90;;;;;;5051769;28;20174;-65
2023/05/08 06:52:24;;;;;;;29.88;26.70;;;16.30;99.90;;;;;;5057292;28;20062;-65
2023/05/08 06:54:50;;;;;;;31.20;27.35;;;16.80;99.90;;;;;;5055735;28;20044;-65
2023/05/08 06:57:15;;;;;;;29.15;26.38;;;16.60;99.90;;;;;;5038976;28;20066;-65
2023/05/08 06:59:41;;;;;;;30.17;27.17;;;16.60;99.90;;;;;;5066563;28;20043;-65
2023/05/08 07:02:08;;;;;;;28.83;26.02;;;16.70;99.90;;;;;;5064284;28;20155;-65
2023/05/08 07:04:34;;;;;;;30.38;27.27;;;16.90;99.90;;;;;;5065761;28;20048;-65
2023/05/08 07:07:00;;;;;;;28.77;25.88;;;17.00;99.90;;;;;;5066966;28;20049;-65
2023/05/08 07:09:25;;;;;;;28.50;25.80;;;17.30;99.90;;;;;;5065538;28;20040;-65
2023/05/08 07:11:51;;;;;;;28.30;25.50;;;17.50;99.90;;;;;;5067894;28;20036;-65
2023/05/08 07:14:16;;;;;;;28.95;25.85;;;17.70;99.90;;;;;;5060506;28;20047;-65
2023/05/08 07:16:42;;;;;;;27.23;24.65;;;18.00;99.90;;;;;;5062945;28;20041;-65
2023/05/08 07:19:07;;;;;;;27.77;24.92;;;18.20;99.90;;;;;;5064216;28;20169;-65
2023/05/08 07:21:33;;;;;;;25.92;23.38;;;18.30;99.90;;;;;;5064348;28;20125;-64
2023/05/08 07:23:58;;;;;;;26.52;23.83;;;18.60;99.90;;;;;;5065591;28;20044;-64
2023/05/08 07:26:24;;;;;;;26.83;24.27;;;18.70;99.90;;;;;;5067437;28;20046;-64
2023/05/08 07:28:50;;;;;;;27.90;24.10;;;18.80;99.90;;;;;;5058271;28;20075;-65
2023/05/08 07:31:16;;;;;;;26.23;23.55;;;19.30;99.90;;;;;;5063758;28;20044;-65
2023/05/08 07:33:41;;;;;;;25.52;23.00;;;19.00;99.90;;;;;;5064816;28;20044;-65
2023/05/08 07:36:07;;;;;;;24.67;22.33;;;19.10;99.90;;;;;;5065902;28;20453;-65
2023/05/08 07:38:32;;;;;;;25.48;22.85;;;19.20;99.90;;;;;;5064018;28;20144;-65
2023/05/08 07:41:00;;;;;;;24.45;22.15;;;19.40;99.90;;;;;;5061314;28;20502;-65
2023/05/08 07:43:26;;;;;;;25.08;22.58;;;19.50;51.20;;;;;;5046356;28;20163;-64
2023/05/08 07:45:53;;;;;;;23.88;21.48;;;19.70;99.90;;;;;;5066609;28;20048;-65
2023/05/08 07:48:18;;;;;;;24.73;22.27;;;19.70;1.00;;;;;;5057431;28;20146;-65
2023/05/08 07:50:44;;;;;;;24.20;21.90;;;19.80;99.90;;;;;;5061791;28;20044;-65
2023/05/08 07:53:10;;;;;;;24.55;22.02;;;19.80;99.90;;;;;;5060640;28;20573;-65
2023/05/08 07:55:35;;;;;;;24.83;22.33;;;20.00;23.80;;;;;;5065597;28;20139;-65
2023/05/08 07:58:01;;;;;;;26.70;22.70;;;19.90;27.50;;;;;;5060830;28;20036;-65
2023/05/08 08:00:27;;;;;;;23.50;21.15;;;20.10;99.90;;;;;;5063169;28;20040;-65
2023/05/08 08:02:52;;;;;;;24.23;21.92;;;20.60;99.90;;;;;;5056378;28;20483;-65
2023/05/08 08:05:18;;;;;;;23.48;21.20;;;20.80;1.00;;;;;;5059940;28;20040;-65
2023/05/08 08:07:43;;;;;;;24.40;22.10;;;20.70;99.90;;;;;;5062490;28;20041;-65
2023/05/08 08:10:09;;;;;;;24.48;22.17;;;20.80;99.90;;;;;;5061471;28;20036;-66
2023/05/08 08:12:35;;;;;;;23.55;21.38;;;21.00;10.90;;;;;;5066742;28;20041;-65
2023/05/08 08:15:01;;;;;;;22.98;20.77;;;21.50;1.00;;;;;;5066352;28;20113;-65
2023/05/08 08:17:26;;;;;;;23.58;21.20;;;21.10;99.90;;;;;;5065170;28;20131;-65
2023/05/08 08:19:52;;;;;;;24.15;21.65;;;21.20;38.60;;;;;;5064615;28;20044;-65
2023/05/08 08:22:18;;;;;;;23.15;20.92;;;21.10;1.00;;;;;;5065641;28;20060;-65
2023/05/08 08:24:43;;;;;;;23.42;21.27;;;21.30;1.00;;;;;;5062176;28;20048;-65
2023/05/08 08:27:09;;;;;;;24.48;21.95;;;21.40;99.90;;;;;;5061564;28;20093;-66
2023/05/08 08:29:34;;;;;;;23.48;20.98;;;21.40;99.90;;;;;;5065926;28;20042;-66
2023/05/08 08:32:02;;;;;;;23.58;21.17;;;21.50;99.90;;;;;;5045973;28;20041;-66
2023/05/08 08:34:27;;;;;;;23.55;21.15;;;21.60;99.90;;;;;;5065633;28;20044;-65
2023/05/08 08:36:53;;;;;;;22.77;20.67;;;21.70;99.90;;;;;;5064133;28;20041;-66
2023/05/08 08:39:18;;;;;;;24.83;22.40;;;22.00;98.10;;;;;;5060486;28;20094;-65
2023/05/08 08:41:44;;;;;;;24.23;21.77;;;22.10;75.20;;;;;;5068644;28;20452;-65
2023/05/08 08:44:09;;;;;;;22.75;20.33;;;22.30;10.90;;;;;;5061767;28;20122;-66
2023/05/08 08:46:42;;;;;;;23.58;21.27;;;22.50;1.00;;;;;;5066401;28;20132;-66
2023/05/08 08:49:11;;;;;;;23.08;20.80;;;22.50;1.00;;;;;;5062301;28;20586;-66
2023/05/08 08:52:00;;;;;;;24.13;21.80;;;22.40;99.90;;;;;;5065778;28;20040;-66
2023/05/08 08:54:30;;;;;;;24.63;22.13;;;22.50;99.90;;;;;;5059782;28;20483;-66
2023/05/08 08:56:59;;;;;;;22.83;20.63;;;22.70;99.90;;;;;;5065657;28;20036;-66
2023/05/08 08:59:27;;;;;;;23.42;21.20;;;22.80;99.90;;;;;;5061440;28;20037;-67
2023/05/08 09:01:57;;;;;;;24.35;22.00;;;22.70;99.90;;;;;;5065100;28;20521;-66
2023/05/08 09:04:26;;;;;;;24.38;22.08;;;22.80;99.90;;;;;;5065619;28;20037;-66
2023/05/08 09:06:52;;;;;;;25.17;22.48;;;22.90;99.90;;;;;;5065118;28;20490;-66
2023/05/08 09:09:18;;;;;;;24.20;21.70;;;23.00;99.90;;;;;;5057654;28;20056;-66
2023/05/08 09:11:45;;;;;;;25.67;23.17;;;23.20;99.90;;;;;;5063735;28;20045;-66
2023/05/08 09:14:10;;;;;;;24.50;21.80;;;23.20;99.90;;;;;;5068664;28;20049;-66
2023/05/08 09:16:36;;;;;;;24.52;22.02;;;23.20;99.90;;;;;;5068995;28;20053;-66
2023/05/08 09:19:02;;;;;;;24.10;21.80;;;23.20;99.90;;;;;;5058325;28;20044;-66
2023/05/08 09:21:28;;;;;;;23.83;21.52;;;23.20;99.90;;;;;;5068241;28;20044;-65
2023/05/08 09:23:59;;;;;;;24.27;21.70;;;23.30;99.90;;;;;;5085052;28;20051;-66
2023/05/08 09:26:38;;;;;;;23.98;21.75;;;23.30;98.30;;;;;;5067338;28;20037;-67
2023/05/08 09:29:21;;;;;;;24.20;21.70;;;23.40;82.20;;;;;;5064595;28;20111;-66
2023/05/08 09:31:52;;;;;;;25.20;22.63;;;23.40;80.60;;;;;;5066482;28;20113;-66
2023/05/08 09:34:26;;;;;;;24.60;22.00;;;23.40;52.50;;;;;;5066584;28;20056;-66
2023/05/08 09:37:04;;;;;;;24.80;22.40;;;23.40;60.20;;;;;;5069236;28;20498;-66
2023/05/08 09:39:30;;;;;;;26.23;23.63;;;23.40;68.60;;;;;;5068969;28;20059;-66
2023/05/08 09:41:57;;;;;;;25.65;22.88;;;23.50;66.30;;;;;;5068610;28;20040;-66
2023/05/08 09:44:23;;;;;;;24.85;22.38;;;23.30;40.30;;;;;;5066965;28;20052;-66
2023/05/08 09:46:49;;;;;;;25.98;23.17;;;23.10;32.90;;;;;;5069577;28;20040;-65
2023/05/08 09:49:18;;;;;;;26.38;23.73;;;23.10;56.00;;;;;;5070126;28;20048;-65
2023/05/08 09:51:53;;;;;;;26.33;23.83;;;23.10;91.20;;;;;;5068002;28;20040;-66
2023/05/08 09:54:19;;;;;;;26.40;23.80;;;23.30;99.90;;;;;;5067578;28;20044;-66
2023/05/08 09:56:45;;;;;;;25.02;22.40;;;23.30;99.90;;;;;;5067835;28;20470;-66
2023/05/08 09:59:30;;;;;;;26.05;23.55;;;23.50;99.90;;;;;;5065498;28;20036;-66
2023/05/08 10:01:56;;;;;;;27.08;24.17;;;23.30;99.90;;;;;;5069304;28;20044;-66
2023/05/08 10:04:35;;;;;;;26.10;23.58;;;23.30;99.90;;;;;;5068374;28;20111;-66
2023/05/08 10:07:02;;;;;;;26.63;24.00;;;23.20;97.60;;;;;;5067449;28;20095;-66
2023/05/08 10:09:28;;;;;;;27.25;24.50;;;23.20;98.80;;;;;;5068663;28;20108;-65
2023/05/08 10:11:54;;;;;;;27.80;24.98;;;23.30;99.90;;;;;;5085964;28;20058;-65
2023/05/08 10:14:23;;;;;;;27.85;25.05;;;23.10;99.90;;;;;;5066030;28;20051;-65
2023/05/08 10:16:53;;;;;;;28.55;25.48;;;23.00;95.70;;;;;;5066920;28;20048;-65
2023/05/08 10:19:23;;;;;;;28.50;25.80;;;23.10;99.90;;;;;;5044137;28;20498;-68
2023/05/08 10:21:51;;;;;;;29.17;26.38;;;23.00;97.80;;;;;;5059245;28;20052;-65
2023/05/08 10:24:18;;;;;;;30.33;27.25;;;23.00;99.90;;;;;;5052064;28;20510;-65
2023/05/08 10:26:51;;;;;;;29.80;26.73;;;22.90;99.90;;;;;;5068644;28;20036;-65
2023/05/08 10:29:23;;;;;;;30.38;26.67;;;22.90;99.90;;;;;;5065310;28;20040;-65
2023/05/08 10:31:54;;;;;;;29.95;27.05;;;22.80;99.90;;;;;;5046188;28;20040;-65
2023/05/08 10:34:21;;;;;;;33.08;29.77;;;22.70;99.90;;;;;;5068295;28;20506;-65
2023/05/08 10:36:47;;;;;;;31.40;28.40;;;22.60;99.90;;;;;;5062147;28;20040;-65
2023/05/08 10:39:15;;;;;;;31.77;28.65;;;22.60;99.90;;;;;;5066473;28;20047;-65
2023/05/08 10:41:41;;;;;;;32.40;29.20;;;22.50;99.90;;;;;;5068587;28;20544;-65
2023/05/08 10:44:09;;;;;;;33.08;29.88;;;22.30;99.90;;;;;;5067023;28;20128;-65
2023/05/08 10:46:44;;;;;;;34.42;30.92;;;22.10;99.90;;;;;;5067086;28;20036;-65
2023/05/08 10:49:44;;;;;;;33.55;30.23;;;22.20;99.90;;;;;;5063129;28;20444;-64
2023/05/08 10:52:16;;;;;;;34.50;30.33;;;22.10;99.90;;;;;;5056883;28;20119;-65
2023/05/08 10:55:03;;;;;;;34.00;30.70;;;22.00;1.00;;;;;;5040659;28;20455;-65
2023/05/08 10:57:29;;;;;;;33.88;30.52;;;22.20;1.00;;;;;;5064208;28;20081;-65
2023/05/08 10:59:55;;;;;;;35.13;31.52;;;22.30;1.00;;;;;;5069138;28;20047;-64
2023/05/08 11:02:35;;;;;;;34.33;30.98;;;22.30;1.00;;;;;;5067676;28;20040;-65
2023/05/08 11:05:17;;;;;;;33.85;30.38;;;22.30;1.00;;;;;;5058004;28;20044;-65
2023/05/08 11:07:56;;;;;;;35.30;31.90;;;22.40;24.30;;;;;;5079359;28;20467;-65
2023/05/08 11:10:30;;;;;;;35.83;32.03;;;22.40;56.30;;;;;;5052844;28;20068;-65
2023/05/08 11:12:56;;;;;;;34.80;31.40;;;22.50;86.10;;;;;;5063701;28;20051;-65
2023/05/08 11:15:38;;;;;;;35.30;31.77;;;22.50;99.90;;;;;;5061436;28;20050;-64
2023/05/08 11:18:15;;;;;;;35.47;31.98;;;22.70;99.90;;;;;;5062201;28;20033;-66
2023/05/08 11:20:53;;;;;;;36.95;32.00;;;22.70;99.90;;;;;;5053456;28;20118;-65
2023/05/08 11:23:26;;;;;;;37.13;33.47;;;22.70;99.90;;;;;;5060326;28;20090;-65
2023/05/08 11:26:02;;;;;;;39.40;34.85;;;22.70;99.90;;;;;;5065336;28;20050;-65
2023/05/08 11:28:38;;;;;;;37.72;33.90;;;22.90;99.90;;;;;;5059322;28;20032;-65
2023/05/08 11:31:05;;;;;;;35.83;32.20;;;23.00;99.90;;;;;;5056330;28;20048;-65
2023/05/08 11:33:39;;;;;;;36.50;32.85;;;22.90;99.90;;;;;;5064750;28;20490;-64
2023/05/08 11:36:17;;;;;;;37.75;33.80;;;23.00;99.90;;;;;;5065319;28;20052;-65
2023/05/08 11:38:42;;;;;;;39.33;33.63;;;22.90;99.90;;;;;;5065196;28;20053;-66
2023/05/08 11:41:29;;;;;;;37.17;33.38;;;22.90;99.90;;;;;;5065747;28;20033;-64
2023/05/08 11:44:04;;;;;;;36.92;33.13;;;22.90;99.90;;;;;;5059980;28;20395;-65
2023/05/08 11:46:40;;;;;;;35.80;32.00;;;23.10;99.90;;;;;;5063130;28;20124;-66
2023/05/08 11:49:10;;;;;;;36.33;32.58;;;23.10;99.90;;;;;;5065939;28;20048;-65
2023/05/08 11:51:37;;;;;;;36.55;32.85;;;23.00;99.90;;;;;;5062298;28;20066;-64
2023/05/08 11:54:03;;;;;;;35.83;32.25;;;22.90;99.90;;;;;;5065567;28;20099;-67
2023/05/08 11:56:30;;;;;;;36.40;32.25;;;22.90;99.90;;;;;;5067205;28;20611;-66
2023/05/08 11:59:07;;;;;;;34.15;30.58;;;22.70;99.90;;;;;;5065281;28;20110;-69
2023/05/08 12:01:33;;;;;;;34.47;31.05;;;23.10;99.90;;;;;;5064781;28;20043;-70
2023/05/08 12:04:00;;;;;;;35.78;32.13;;;23.10;99.90;;;;;;5061982;28;20053;-70
2023/05/08 12:06:26;;;;;;;36.30;32.70;;;22.70;99.90;;;;;;5066225;28;20044;-70
2023/05/08 12:08:52;;;;;;;30.42;27.15;;;22.80;93.40;;;;;;5063252;28;20036;-70
2023/05/08 12:11:23;;;;;;;32.15;28.80;;;22.60;1.00;;;;;;5062235;28;20613;-70
2023/05/08 12:13:50;;;;;;;32.78;29.50;;;22.70;5.40;;;;;;5061431;28;20505;-70
2023/05/08 12:16:16;;;;;;;28.50;25.38;;;22.60;96.10;;;;;;5064254;28;20036;-70
2023/05/08 12:18:42;;;;;;;30.30;27.30;;;22.60;33.30;;;;;;5063164;28;20113;-71
2023/05/08 12:21:10;;;;;;;30.33;26.30;;;22.70;1.00;;;;;;5059001;28;20506;-70
2023/05/08 12:23:36;;;;;;;30.33;27.15;;;22.60;1.00;;;;;;5038946;28;20053;-70
2023/05/08 12:26:03;;;;;;;22.30;20.00;;;22.70;2.00;;;;;;5044198;28;20128;-70
2023/05/08 12:28:31;;;;;;;21.85;19.55;;;22.70;1.00;;;;;;5058481;28;20047;-70
2023/05/08 12:30:57;;;;;;;24.35;21.85;;;22.60;1.00;;;;;;5066344;28;20032;-70
2023/05/08 12:33:23;;;;;;;27.38;22.67;;;22.50;1.00;;;;;;5060593;28;20041;-70
2023/05/08 12:35:49;;;;;;;27.85;25.05;;;22.50;1.00;;;;;;5060738;28;20121;-70
2023/05/08 12:38:15;;;;;;;31.10;27.58;;;22.60;1.00;;;;;;5079711;28;20048;-70
2023/05/08 12:40:51;;;;;;;32.20;28.83;;;22.70;1.00;;;;;;5066289;28;20052;-70
2023/05/08 12:43:17;;;;;;;31.23;28.00;;;22.70;1.00;;;;;;5075365;28;20123;-70
2023/05/08 12:45:43;;;;;;;32.42;28.98;;;22.80;1.00;;;;;;5065930;28;20148;-70
2023/05/08 12:48:11;;;;;;;34.47;31.00;;;22.70;1.00;;;;;;5065944;28;20489;-70